sensor_id;sensor_type;location;lat;lon;timestamp;P1;durP1;ratioP1;P2;durP2;ratioP2
813;SDS011;389;48.710;9.392;2022-08-01T00:00:28;5.97;;;5.10;;
813;SDS011;389;48.710;9.392;2022-08-01T00:02:56;6.27;;;4.70;;
813;SDS011;389;48.710;9.392;2022-08-01T00:05:21;4.97;;;4.57;;
813;SDS011;389;48.710;9.392;2022-08-01T00:07:47;6.03;;;4.83;;
813;SDS011;389;48.710;9.392;2022-08-01T00:10:13;6.30;;;5.10;;
813;SDS011;389;48.710;9.392;2022-08-01T00:12:40;5.17;;;4.73;;
813;SDS011;389;48.710;9.392;2022-08-01T00:15:07;5.30;;;4.80;;
813;SDS011;389;48.710;9.392;2022-08-01T00:17:34;5.33;;;4.83;;
813;SDS011;389;48.710;9.392;2022-08-01T00:20:00;5.87;;;5.37;;
813;SDS011;389;48.710;9.392;2022-08-01T00:22:27;5.77;;;5.33;;
813;SDS011;389;48.710;9.392;2022-08-01T00:24:53;5.87;;;5.37;;
813;SDS011;389;48.710;9.392;2022-08-01T00:27:19;6.27;;;5.70;;
813;SDS011;389;48.710;9.392;2022-08-01T00:29:44;7.03;;;5.37;;
813;SDS011;389;48.710;9.392;2022-08-01T00:32:10;4.93;;;4.53;;
813;SDS011;389;48.710;9.392;2022-08-01T00:34:35;6.13;;;5.13;;
813;SDS011;389;48.710;9.392;2022-08-01T00:37:01;6.30;;;4.87;;
813;SDS011;389;48.710;9.392;2022-08-01T00:39:26;5.30;;;4.80;;
813;SDS011;389;48.710;9.392;2022-08-01T00:41:52;5.77;;;5.20;;
813;SDS011;389;48.710;9.392;2022-08-01T00:44:18;4.57;;;4.20;;
813;SDS011;389;48.710;9.392;2022-08-01T00:46:43;5.13;;;4.60;;
813;SDS011;389;48.710;9.392;2022-08-01T00:49:09;5.63;;;4.57;;
813;SDS011;389;48.710;9.392;2022-08-01T00:51:34;5.30;;;4.80;;
813;SDS011;389;48.710;9.392;2022-08-01T00:54:00;7.03;;;4.43;;
813;SDS011;389;48.710;9.392;2022-08-01T00:56:26;7.03;;;4.47;;
813;SDS011;389;48.710;9.392;2022-08-01T00:58:56;8.50;;;5.00;;
813;SDS011;389;48.710;9.392;2022-08-01T01:01:21;4.53;;;4.13;;
813;SDS011;389;48.710;9.392;2022-08-01T01:03:48;5.00;;;4.47;;
813;SDS011;389;48.710;9.392;2022-08-01T01:14:54;4.70;;;4.30;;
813;SDS011;389;48.710;9.392;2022-08-01T01:20:18;4.50;;;4.10;;
813;SDS011;389;48.710;9.392;2022-08-01T01:26:14;4.13;;;3.73;;
813;SDS011;389;48.710;9.392;2022-08-01T01:31:44;5.77;;;4.37;;
813;SDS011;389;48.710;9.392;2022-08-01T01:34:14;4.27;;;3.97;;
813;SDS011;389;48.710;9.392;2022-08-01T01:36:42;4.67;;;4.27;;
813;SDS011;389;48.710;9.392;2022-08-01T01:39:09;5.97;;;4.00;;
813;SDS011;389;48.710;9.392;2022-08-01T01:41:36;4.80;;;4.30;;
813;SDS011;389;48.710;9.392;2022-08-01T01:44:03;4.43;;;4.03;;
813;SDS011;389;48.710;9.392;2022-08-01T01:46:30;4.77;;;4.33;;
813;SDS011;389;48.710;9.392;2022-08-01T01:48:57;4.13;;;3.83;;
813;SDS011;389;48.710;9.392;2022-08-01T01:51:24;4.60;;;4.20;;
813;SDS011;389;48.710;9.392;2022-08-01T01:53:52;4.17;;;3.87;;
813;SDS011;389;48.710;9.392;2022-08-01T01:56:19;4.60;;;4.20;;
813;SDS011;389;48.710;9.392;2022-08-01T01:58:46;6.43;;;4.20;;
813;SDS011;389;48.710;9.392;2022-08-01T02:01:16;4.80;;;4.40;;
813;SDS011;389;48.710;9.392;2022-08-01T02:03:43;5.23;;;4.13;;
813;SDS011;389;48.710;9.392;2022-08-01T02:06:11;5.13;;;3.83;;
813;SDS011;389;48.710;9.392;2022-08-01T02:08:38;4.47;;;4.03;;
813;SDS011;389;48.710;9.392;2022-08-01T02:11:06;5.67;;;4.40;;
813;SDS011;389;48.710;9.392;2022-08-01T02:13:49;5.90;;;4.10;;
813;SDS011;389;48.710;9.392;2022-08-01T02:16:23;4.30;;;3.90;;
813;SDS011;389;48.710;9.392;2022-08-01T02:18:51;4.90;;;4.47;;
813;SDS011;389;48.710;9.392;2022-08-01T02:21:18;5.00;;;4.40;;
813;SDS011;389;48.710;9.392;2022-08-01T02:23:50;4.70;;;4.30;;
813;SDS011;389;48.710;9.392;2022-08-01T02:26:16;4.90;;;4.50;;
813;SDS011;389;48.710;9.392;2022-08-01T02:28:45;4.53;;;4.03;;
813;SDS011;389;48.710;9.392;2022-08-01T02:31:16;4.67;;;4.23;;
813;SDS011;389;48.710;9.392;2022-08-01T02:33:45;4.37;;;3.97;;
813;SDS011;389;48.710;9.392;2022-08-01T02:36:18;4.90;;;4.40;;
813;SDS011;389;48.710;9.392;2022-08-01T02:38:45;4.53;;;4.13;;
813;SDS011;389;48.710;9.392;2022-08-01T02:41:13;5.27;;;4.60;;
813;SDS011;389;48.710;9.392;2022-08-01T02:43:50;5.10;;;4.60;;
813;SDS011;389;48.710;9.392;2022-08-01T02:46:21;6.30;;;5.00;;
813;SDS011;389;48.710;9.392;2022-08-01T02:48:52;5.37;;;4.87;;
813;SDS011;389;48.710;9.392;2022-08-01T02:51:21;4.90;;;4.47;;
813;SDS011;389;48.710;9.392;2022-08-01T02:53:50;4.40;;;4.00;;
813;SDS011;389;48.710;9.392;2022-08-01T02:56:18;5.13;;;4.73;;
813;SDS011;389;48.710;9.392;2022-08-01T02:58:46;5.03;;;4.40;;
813;SDS011;389;48.710;9.392;2022-08-01T03:01:13;7.00;;;4.80;;
813;SDS011;389;48.710;9.392;2022-08-01T03:03:40;7.53;;;4.60;;
813;SDS011;389;48.710;9.392;2022-08-01T03:06:06;4.87;;;4.37;;
813;SDS011;389;48.710;9.392;2022-08-01T03:08:32;5.27;;;4.77;;
813;SDS011;389;48.710;9.392;2022-08-01T03:11:01;7.40;;;4.60;;
813;SDS011;389;48.710;9.392;2022-08-01T03:13:28;5.27;;;4.77;;
813;SDS011;389;48.710;9.392;2022-08-01T03:16:23;5.90;;;5.17;;
813;SDS011;389;48.710;9.392;2022-08-01T03:18:51;6.93;;;4.63;;
813;SDS011;389;48.710;9.392;2022-08-01T03:21:21;5.13;;;4.73;;
813;SDS011;389;48.710;9.392;2022-08-01T03:23:48;4.70;;;4.30;;
813;SDS011;389;48.710;9.392;2022-08-01T03:26:16;5.23;;;4.73;;
813;SDS011;389;48.710;9.392;2022-08-01T03:28:42;5.47;;;4.53;;
813;SDS011;389;48.710;9.392;2022-08-01T03:31:10;6.77;;;4.80;;
813;SDS011;389;48.710;9.392;2022-08-01T03:33:38;6.10;;;5.00;;
813;SDS011;389;48.710;9.392;2022-08-01T03:36:04;5.13;;;4.67;;
813;SDS011;389;48.710;9.392;2022-08-01T03:38:33;5.30;;;4.80;;
813;SDS011;389;48.710;9.392;2022-08-01T03:41:05;5.37;;;4.93;;
813;SDS011;389;48.710;9.392;2022-08-01T03:43:46;7.93;;;4.77;;
813;SDS011;389;48.710;9.392;2022-08-01T03:46:43;4.83;;;4.23;;
813;SDS011;389;48.710;9.392;2022-08-01T03:49:14;5.63;;;5.13;;
813;SDS011;389;48.710;9.392;2022-08-01T03:51:45;9.43;;;8.53;;
813;SDS011;389;48.710;9.392;2022-08-01T03:54:14;7.63;;;6.93;;
813;SDS011;389;48.710;9.392;2022-08-01T03:56:42;5.90;;;5.40;;
813;SDS011;389;48.710;9.392;2022-08-01T03:59:09;6.00;;;5.20;;
813;SDS011;389;48.710;9.392;2022-08-01T04:01:35;5.47;;;4.87;;
813;SDS011;389;48.710;9.392;2022-08-01T04:04:02;5.60;;;5.00;;
813;SDS011;389;48.710;9.392;2022-08-01T04:06:30;5.70;;;5.20;;
813;SDS011;389;48.710;9.392;2022-08-01T04:08:55;8.20;;;5.57;;
813;SDS011;389;48.710;9.392;2022-08-01T04:11:24;6.77;;;5.90;;
813;SDS011;389;48.710;9.392;2022-08-01T04:13:52;9.40;;;4.90;;
813;SDS011;389;48.710;9.392;2022-08-01T04:16:19;5.63;;;5.13;;
813;SDS011;389;48.710;9.392;2022-08-01T04:18:52;6.20;;;5.60;;
813;SDS011;389;48.710;9.392;2022-08-01T04:21:18;5.43;;;4.97;;
813;SDS011;389;48.710;9.392;2022-08-01T04:23:48;6.77;;;5.37;;
813;SDS011;389;48.710;9.392;2022-08-01T04:26:14;5.60;;;5.10;;
813;SDS011;389;48.710;9.392;2022-08-01T04:28:42;6.30;;;5.17;;
813;SDS011;389;48.710;9.392;2022-08-01T04:31:09;5.17;;;4.70;;
813;SDS011;389;48.710;9.392;2022-08-01T04:33:38;6.23;;;5.63;;
813;SDS011;389;48.710;9.392;2022-08-01T04:36:06;6.00;;;5.40;;
813;SDS011;389;48.710;9.392;2022-08-01T04:38:35;5.30;;;4.80;;
813;SDS011;389;48.710;9.392;2022-08-01T04:41:02;5.63;;;5.13;;
813;SDS011;389;48.710;9.392;2022-08-01T04:43:31;5.10;;;4.60;;
813;SDS011;389;48.710;9.392;2022-08-01T04:45:57;5.67;;;5.13;;
813;SDS011;389;48.710;9.392;2022-08-01T04:48:23;5.27;;;4.77;;
813;SDS011;389;48.710;9.392;2022-08-01T04:50:50;5.90;;;5.33;;
813;SDS011;389;48.710;9.392;2022-08-01T04:53:17;9.00;;;5.90;;
813;SDS011;389;48.710;9.392;2022-08-01T04:55:45;7.87;;;5.33;;
813;SDS011;389;48.710;9.392;2022-08-01T04:58:11;7.37;;;5.93;;
813;SDS011;389;48.710;9.392;2022-08-01T05:00:37;7.63;;;5.47;;
813;SDS011;389;48.710;9.392;2022-08-01T05:03:02;7.03;;;6.30;;
813;SDS011;389;48.710;9.392;2022-08-01T05:05:28;6.10;;;5.60;;
813;SDS011;389;48.710;9.392;2022-08-01T05:07:55;6.23;;;5.60;;
813;SDS011;389;48.710;9.392;2022-08-01T05:10:21;5.43;;;4.80;;
813;SDS011;389;48.710;9.392;2022-08-01T05:12:47;6.73;;;4.90;;
813;SDS011;389;48.710;9.392;2022-08-01T05:15:12;7.27;;;5.60;;
813;SDS011;389;48.710;9.392;2022-08-01T05:17:38;6.80;;;4.90;;
813;SDS011;389;48.710;9.392;2022-08-01T05:20:03;6.73;;;5.20;;
813;SDS011;389;48.710;9.392;2022-08-01T05:22:31;5.20;;;4.70;;
813;SDS011;389;48.710;9.392;2022-08-01T05:24:57;5.30;;;4.80;;
813;SDS011;389;48.710;9.392;2022-08-01T05:27:22;6.00;;;4.80;;
813;SDS011;389;48.710;9.392;2022-08-01T05:29:48;8.73;;;5.50;;
813;SDS011;389;48.710;9.392;2022-08-01T05:32:13;14.10;;;4.97;;
813;SDS011;389;48.710;9.392;2022-08-01T05:34:39;5.10;;;4.50;;
813;SDS011;389;48.710;9.392;2022-08-01T05:37:05;5.57;;;4.43;;
813;SDS011;389;48.710;9.392;2022-08-01T05:39:30;5.33;;;4.80;;
813;SDS011;389;48.710;9.392;2022-08-01T05:41:56;6.53;;;4.17;;
813;SDS011;389;48.710;9.392;2022-08-01T05:44:21;4.63;;;4.03;;
813;SDS011;389;48.710;9.392;2022-08-01T05:46:47;7.57;;;4.80;;
813;SDS011;389;48.710;9.392;2022-08-01T05:49:13;4.60;;;4.20;;
813;SDS011;389;48.710;9.392;2022-08-01T05:51:38;5.03;;;3.73;;
813;SDS011;389;48.710;9.392;2022-08-01T05:54:04;4.20;;;3.90;;
813;SDS011;389;48.710;9.392;2022-08-01T05:56:29;4.20;;;3.90;;
813;SDS011;389;48.710;9.392;2022-08-01T05:58:55;4.90;;;3.93;;
813;SDS011;389;48.710;9.392;2022-08-01T06:01:20;4.27;;;3.97;;
813;SDS011;389;48.710;9.392;2022-08-01T06:03:46;5.40;;;3.60;;
813;SDS011;389;48.710;9.392;2022-08-01T06:06:12;4.00;;;3.70;;
813;SDS011;389;48.710;9.392;2022-08-01T06:08:39;5.80;;;3.47;;
813;SDS011;389;48.710;9.392;2022-08-01T06:11:04;4.60;;;3.83;;
813;SDS011;389;48.710;9.392;2022-08-01T06:13:30;3.83;;;3.53;;
813;SDS011;389;48.710;9.392;2022-08-01T06:15:56;7.77;;;4.00;;
813;SDS011;389;48.710;9.392;2022-08-01T06:18:22;4.20;;;3.30;;
813;SDS011;389;48.710;9.392;2022-08-01T06:20:48;6.20;;;3.63;;
813;SDS011;389;48.710;9.392;2022-08-01T06:23:13;4.47;;;4.03;;
813;SDS011;389;48.710;9.392;2022-08-01T06:25:41;4.47;;;3.70;;
813;SDS011;389;48.710;9.392;2022-08-01T06:28:07;4.10;;;3.70;;
813;SDS011;389;48.710;9.392;2022-08-01T06:30:33;4.47;;;4.17;;
813;SDS011;389;48.710;9.392;2022-08-01T06:32:58;4.23;;;3.53;;
813;SDS011;389;48.710;9.392;2022-08-01T06:35:25;4.40;;;4.10;;
813;SDS011;389;48.710;9.392;2022-08-01T06:37:51;4.70;;;3.70;;
813;SDS011;389;48.710;9.392;2022-08-01T06:40:16;4.03;;;3.57;;
813;SDS011;389;48.710;9.392;2022-08-01T06:42:42;4.40;;;3.97;;
813;SDS011;389;48.710;9.392;2022-08-01T06:45:10;3.83;;;3.53;;
813;SDS011;389;48.710;9.392;2022-08-01T06:47:37;3.73;;;3.53;;
813;SDS011;389;48.710;9.392;2022-08-01T06:50:03;4.23;;;3.83;;
813;SDS011;389;48.710;9.392;2022-08-01T06:52:30;4.40;;;4.00;;
813;SDS011;389;48.710;9.392;2022-08-01T06:54:56;4.67;;;3.80;;
813;SDS011;389;48.710;9.392;2022-08-01T06:57:21;5.73;;;4.23;;
813;SDS011;389;48.710;9.392;2022-08-01T06:59:47;4.30;;;3.80;;
813;SDS011;389;48.710;9.392;2022-08-01T07:02:13;4.10;;;3.70;;
813;SDS011;389;48.710;9.392;2022-08-01T07:04:38;4.63;;;4.23;;
813;SDS011;389;48.710;9.392;2022-08-01T07:07:05;5.37;;;4.23;;
813;SDS011;389;48.710;9.392;2022-08-01T07:09:31;4.50;;;4.10;;
813;SDS011;389;48.710;9.392;2022-08-01T07:11:57;4.57;;;3.97;;
813;SDS011;389;48.710;9.392;2022-08-01T07:14:23;3.77;;;3.40;;
813;SDS011;389;48.710;9.392;2022-08-01T07:16:48;4.53;;;4.13;;
813;SDS011;389;48.710;9.392;2022-08-01T07:19:15;4.63;;;3.70;;
813;SDS011;389;48.710;9.392;2022-08-01T07:21:41;5.20;;;3.37;;
813;SDS011;389;48.710;9.392;2022-08-01T07:24:07;5.53;;;4.00;;
813;SDS011;389;48.710;9.392;2022-08-01T07:26:33;4.03;;;3.63;;
813;SDS011;389;48.710;9.392;2022-08-01T07:28:59;5.10;;;3.60;;
813;SDS011;389;48.710;9.392;2022-08-01T07:31:25;3.90;;;3.60;;
813;SDS011;389;48.710;9.392;2022-08-01T07:33:50;6.00;;;3.70;;
813;SDS011;389;48.710;9.392;2022-08-01T07:36:16;3.70;;;3.20;;
813;SDS011;389;48.710;9.392;2022-08-01T07:38:43;6.63;;;3.80;;
813;SDS011;389;48.710;9.392;2022-08-01T07:41:08;3.80;;;3.50;;
813;SDS011;389;48.710;9.392;2022-08-01T07:43:34;3.90;;;3.50;;
813;SDS011;389;48.710;9.392;2022-08-01T07:46:01;3.70;;;3.40;;
813;SDS011;389;48.710;9.392;2022-08-01T07:48:27;3.40;;;3.00;;
813;SDS011;389;48.710;9.392;2022-08-01T07:50:53;3.40;;;3.10;;
813;SDS011;389;48.710;9.392;2022-08-01T07:53:19;3.50;;;3.20;;
813;SDS011;389;48.710;9.392;2022-08-01T07:55:44;3.90;;;3.13;;
813;SDS011;389;48.710;9.392;2022-08-01T07:58:10;3.67;;;3.37;;
813;SDS011;389;48.710;9.392;2022-08-01T08:00:36;4.10;;;3.70;;
813;SDS011;389;48.710;9.392;2022-08-01T08:03:01;3.57;;;3.17;;
813;SDS011;389;48.710;9.392;2022-08-01T08:05:27;4.67;;;3.37;;
813;SDS011;389;48.710;9.392;2022-08-01T08:07:52;3.37;;;2.97;;
813;SDS011;389;48.710;9.392;2022-08-01T08:10:18;3.23;;;3.00;;
813;SDS011;389;48.710;9.392;2022-08-01T08:12:44;3.30;;;3.10;;
813;SDS011;389;48.710;9.392;2022-08-01T08:15:11;4.50;;;3.13;;
813;SDS011;389;48.710;9.392;2022-08-01T08:17:38;3.60;;;3.30;;
813;SDS011;389;48.710;9.392;2022-08-01T08:20:05;3.83;;;3.50;;
813;SDS011;389;48.710;9.392;2022-08-01T08:22:33;3.40;;;3.10;;
813;SDS011;389;48.710;9.392;2022-08-01T08:24:59;2.93;;;2.73;;
813;SDS011;389;48.710;9.392;2022-08-01T08:27:24;3.33;;;3.03;;
813;SDS011;389;48.710;9.392;2022-08-01T08:29:51;3.37;;;2.90;;
813;SDS011;389;48.710;9.392;2022-08-01T08:32:16;3.83;;;3.27;;
813;SDS011;389;48.710;9.392;2022-08-01T08:34:42;4.00;;;3.00;;
813;SDS011;389;48.710;9.392;2022-08-01T08:37:08;3.00;;;2.80;;
813;SDS011;389;48.710;9.392;2022-08-01T08:39:34;3.80;;;2.93;;
813;SDS011;389;48.710;9.392;2022-08-01T08:42:00;3.40;;;3.10;;
813;SDS011;389;48.710;9.392;2022-08-01T08:44:27;5.10;;;3.80;;
813;SDS011;389;48.710;9.392;2022-08-01T08:46:53;2.77;;;2.57;;
813;SDS011;389;48.710;9.392;2022-08-01T08:49:25;3.20;;;2.90;;
813;SDS011;389;48.710;9.392;2022-08-01T08:51:52;3.43;;;3.13;;
813;SDS011;389;48.710;9.392;2022-08-01T08:54:22;2.87;;;2.67;;
813;SDS011;389;48.710;9.392;2022-08-01T08:56:49;2.90;;;2.70;;
813;SDS011;389;48.710;9.392;2022-08-01T08:59:16;3.00;;;2.70;;
813;SDS011;389;48.710;9.392;2022-08-01T09:01:42;3.40;;;3.10;;
813;SDS011;389;48.710;9.392;2022-08-01T09:04:08;2.90;;;2.70;;
813;SDS011;389;48.710;9.392;2022-08-01T09:06:34;2.77;;;2.57;;
813;SDS011;389;48.710;9.392;2022-08-01T09:09:00;2.60;;;2.40;;
813;SDS011;389;48.710;9.392;2022-08-01T09:11:26;3.10;;;2.57;;
813;SDS011;389;48.710;9.392;2022-08-01T09:16:47;3.10;;;2.80;;
813;SDS011;389;48.710;9.392;2022-08-01T09:19:23;3.27;;;2.97;;
813;SDS011;389;48.710;9.392;2022-08-01T09:24:26;3.20;;;2.90;;
813;SDS011;389;48.710;9.392;2022-08-01T09:26:55;3.80;;;3.40;;
813;SDS011;389;48.710;9.392;2022-08-01T09:29:23;3.57;;;3.30;;
813;SDS011;389;48.710;9.392;2022-08-01T09:31:50;3.30;;;3.10;;
813;SDS011;389;48.710;9.392;2022-08-01T09:34:23;3.53;;;3.23;;
813;SDS011;389;48.710;9.392;2022-08-01T09:36:54;3.80;;;3.27;;
813;SDS011;389;48.710;9.392;2022-08-01T09:39:22;3.77;;;3.40;;
813;SDS011;389;48.710;9.392;2022-08-01T09:41:49;7.97;;;3.43;;
813;SDS011;389;48.710;9.392;2022-08-01T09:44:16;3.97;;;3.57;;
813;SDS011;389;48.710;9.392;2022-08-01T09:49:26;4.10;;;3.80;;
813;SDS011;389;48.710;9.392;2022-08-01T09:51:57;8.17;;;4.77;;
813;SDS011;389;48.710;9.392;2022-08-01T09:54:31;5.00;;;4.50;;
813;SDS011;389;48.710;9.392;2022-08-01T09:57:08;4.47;;;4.07;;
813;SDS011;389;48.710;9.392;2022-08-01T09:59:45;5.20;;;3.87;;
813;SDS011;389;48.710;9.392;2022-08-01T10:02:14;5.00;;;4.50;;
813;SDS011;389;48.710;9.392;2022-08-01T10:04:52;5.33;;;3.90;;
813;SDS011;389;48.710;9.392;2022-08-01T10:07:18;5.10;;;4.70;;
813;SDS011;389;48.710;9.392;2022-08-01T10:09:44;4.90;;;4.40;;
813;SDS011;389;48.710;9.392;2022-08-01T10:12:11;5.00;;;4.43;;
813;SDS011;389;48.710;9.392;2022-08-01T10:14:39;5.27;;;4.77;;
813;SDS011;389;48.710;9.392;2022-08-01T10:17:07;4.90;;;4.40;;
813;SDS011;389;48.710;9.392;2022-08-01T10:19:34;6.50;;;4.80;;
813;SDS011;389;48.710;9.392;2022-08-01T10:22:02;4.87;;;4.47;;
813;SDS011;389;48.710;9.392;2022-08-01T10:24:34;6.83;;;5.37;;
813;SDS011;389;48.710;9.392;2022-08-01T10:27:03;5.10;;;4.50;;
813;SDS011;389;48.710;9.392;2022-08-01T10:29:31;5.97;;;5.30;;
813;SDS011;389;48.710;9.392;2022-08-01T10:32:03;6.70;;;5.60;;
813;SDS011;389;48.710;9.392;2022-08-01T10:34:30;6.73;;;6.13;;
813;SDS011;389;48.710;9.392;2022-08-01T10:36:56;6.07;;;5.50;;
813;SDS011;389;48.710;9.392;2022-08-01T10:39:22;6.20;;;5.67;;
813;SDS011;389;48.710;9.392;2022-08-01T10:41:49;6.47;;;5.67;;
813;SDS011;389;48.710;9.392;2022-08-01T10:44:15;6.30;;;5.70;;
813;SDS011;389;48.710;9.392;2022-08-01T10:46:48;6.13;;;5.30;;
813;SDS011;389;48.710;9.392;2022-08-01T10:49:19;7.27;;;6.57;;
813;SDS011;389;48.710;9.392;2022-08-01T10:51:50;7.00;;;6.40;;
813;SDS011;389;48.710;9.392;2022-08-01T10:54:16;6.77;;;6.17;;
813;SDS011;389;48.710;9.392;2022-08-01T10:56:49;5.93;;;5.40;;
813;SDS011;389;48.710;9.392;2022-08-01T10:59:26;5.90;;;5.40;;
813;SDS011;389;48.710;9.392;2022-08-01T11:02:00;6.37;;;5.87;;
813;SDS011;389;48.710;9.392;2022-08-01T11:04:35;5.93;;;5.43;;
813;SDS011;389;48.710;9.392;2022-08-01T11:07:06;6.50;;;5.90;;
813;SDS011;389;48.710;9.392;2022-08-01T11:09:43;6.27;;;5.67;;
813;SDS011;389;48.710;9.392;2022-08-01T11:12:16;6.57;;;5.50;;
813;SDS011;389;48.710;9.392;2022-08-01T11:25:22;6.40;;;5.80;;
813;SDS011;389;48.710;9.392;2022-08-01T11:27:48;5.37;;;4.87;;
813;SDS011;389;48.710;9.392;2022-08-01T11:32:47;4.40;;;4.10;;
813;SDS011;389;48.710;9.392;2022-08-01T11:35:20;4.80;;;4.40;;
813;SDS011;389;48.710;9.392;2022-08-01T11:37:49;4.80;;;4.30;;
813;SDS011;389;48.710;9.392;2022-08-01T11:42:50;4.70;;;4.30;;
813;SDS011;389;48.710;9.392;2022-08-01T11:45:54;4.30;;;3.90;;
813;SDS011;389;48.710;9.392;2022-08-01T11:50:47;5.10;;;4.00;;
813;SDS011;389;48.710;9.392;2022-08-01T11:53:15;4.23;;;3.93;;
813;SDS011;389;48.710;9.392;2022-08-01T11:55:48;5.10;;;4.70;;
813;SDS011;389;48.710;9.392;2022-08-01T11:58:16;4.90;;;4.50;;
813;SDS011;389;48.710;9.392;2022-08-01T12:00:51;4.33;;;4.03;;
813;SDS011;389;48.710;9.392;2022-08-01T12:03:25;4.20;;;3.90;;
813;SDS011;389;48.710;9.392;2022-08-01T12:05:55;4.10;;;3.80;;
813;SDS011;389;48.710;9.392;2022-08-01T12:10:51;4.53;;;4.20;;
813;SDS011;389;48.710;9.392;2022-08-01T12:13:16;4.47;;;4.17;;
813;SDS011;389;48.710;9.392;2022-08-01T12:15:45;4.77;;;4.37;;
813;SDS011;389;48.710;9.392;2022-08-01T12:18:11;4.77;;;4.23;;
813;SDS011;389;48.710;9.392;2022-08-01T12:20:41;4.30;;;3.90;;
813;SDS011;389;48.710;9.392;2022-08-01T12:23:11;4.17;;;3.53;;
813;SDS011;389;48.710;9.392;2022-08-01T12:25:39;4.03;;;3.73;;
813;SDS011;389;48.710;9.392;2022-08-01T12:28:08;6.60;;;3.87;;
813;SDS011;389;48.710;9.392;2022-08-01T12:30:35;6.00;;;4.30;;
813;SDS011;389;48.710;9.392;2022-08-01T12:33:02;4.53;;;4.10;;
813;SDS011;389;48.710;9.392;2022-08-01T12:35:30;4.97;;;4.10;;
813;SDS011;389;48.710;9.392;2022-08-01T12:37:57;5.73;;;4.33;;
813;SDS011;389;48.710;9.392;2022-08-01T12:40:25;3.87;;;3.67;;
813;SDS011;389;48.710;9.392;2022-08-01T12:42:56;4.30;;;4.00;;
813;SDS011;389;48.710;9.392;2022-08-01T12:45:34;4.10;;;3.80;;
813;SDS011;389;48.710;9.392;2022-08-01T12:48:07;4.10;;;3.80;;
813;SDS011;389;48.710;9.392;2022-08-01T12:50:36;4.43;;;4.10;;
813;SDS011;389;48.710;9.392;2022-08-01T12:53:03;5.33;;;4.10;;
813;SDS011;389;48.710;9.392;2022-08-01T12:55:29;4.43;;;4.03;;
813;SDS011;389;48.710;9.392;2022-08-01T13:03:09;4.93;;;4.27;;
813;SDS011;389;48.710;9.392;2022-08-01T13:08:15;4.83;;;4.33;;
813;SDS011;389;48.710;9.392;2022-08-01T13:10:43;4.23;;;3.93;;
813;SDS011;389;48.710;9.392;2022-08-01T13:13:09;4.40;;;4.10;;
813;SDS011;389;48.710;9.392;2022-08-01T13:15:37;4.00;;;3.70;;
813;SDS011;389;48.710;9.392;2022-08-01T13:18:46;4.70;;;4.30;;
813;SDS011;389;48.710;9.392;2022-08-01T13:24:01;4.17;;;3.87;;
813;SDS011;389;48.710;9.392;2022-08-01T13:29:12;4.97;;;3.40;;
813;SDS011;389;48.710;9.392;2022-08-01T13:31:45;4.37;;;3.97;;
813;SDS011;389;48.710;9.392;2022-08-01T13:34:11;3.80;;;3.20;;
813;SDS011;389;48.710;9.392;2022-08-01T13:36:37;3.90;;;3.60;;
813;SDS011;389;48.710;9.392;2022-08-01T13:39:04;4.37;;;3.53;;
813;SDS011;389;48.710;9.392;2022-08-01T13:41:49;3.60;;;3.30;;
813;SDS011;389;48.710;9.392;2022-08-01T13:44:15;5.50;;;3.53;;
813;SDS011;389;48.710;9.392;2022-08-01T13:46:41;3.53;;;3.23;;
813;SDS011;389;48.710;9.392;2022-08-01T13:49:07;3.27;;;3.07;;
813;SDS011;389;48.710;9.392;2022-08-01T13:51:35;3.70;;;3.40;;
813;SDS011;389;48.710;9.392;2022-08-01T13:54:01;4.10;;;3.50;;
813;SDS011;389;48.710;9.392;2022-08-01T13:56:27;4.03;;;3.73;;
813;SDS011;389;48.710;9.392;2022-08-01T13:58:53;3.57;;;3.27;;
813;SDS011;389;48.710;9.392;2022-08-01T14:01:19;3.47;;;3.00;;
813;SDS011;389;48.710;9.392;2022-08-01T14:03:45;3.37;;;3.10;;
813;SDS011;389;48.710;9.392;2022-08-01T14:06:11;3.30;;;3.10;;
813;SDS011;389;48.710;9.392;2022-08-01T14:08:39;3.77;;;3.10;;
813;SDS011;389;48.710;9.392;2022-08-01T14:11:04;3.10;;;2.90;;
813;SDS011;389;48.710;9.392;2022-08-01T14:13:30;3.23;;;3.03;;
813;SDS011;389;48.710;9.392;2022-08-01T14:15:55;3.50;;;3.13;;
813;SDS011;389;48.710;9.392;2022-08-01T14:18:21;3.30;;;3.00;;
813;SDS011;389;48.710;9.392;2022-08-01T14:20:47;3.10;;;2.90;;
813;SDS011;389;48.710;9.392;2022-08-01T14:23:12;3.40;;;3.10;;
813;SDS011;389;48.710;9.392;2022-08-01T14:25:39;3.20;;;2.87;;
813;SDS011;389;48.710;9.392;2022-08-01T14:28:05;3.17;;;2.87;;
813;SDS011;389;48.710;9.392;2022-08-01T14:30:33;3.33;;;3.13;;
813;SDS011;389;48.710;9.392;2022-08-01T14:32:58;3.13;;;2.80;;
813;SDS011;389;48.710;9.392;2022-08-01T14:35:24;3.20;;;2.90;;
813;SDS011;389;48.710;9.392;2022-08-01T14:37:50;4.17;;;3.47;;
813;SDS011;389;48.710;9.392;2022-08-01T14:40:16;3.40;;;2.70;;
813;SDS011;389;48.710;9.392;2022-08-01T14:42:42;3.53;;;2.80;;
813;SDS011;389;48.710;9.392;2022-08-01T14:45:12;3.43;;;2.70;;
813;SDS011;389;48.710;9.392;2022-08-01T14:47:39;3.03;;;2.83;;
813;SDS011;389;48.710;9.392;2022-08-01T14:50:06;2.57;;;2.43;;
813;SDS011;389;48.710;9.392;2022-08-01T14:52:35;3.80;;;2.60;;
813;SDS011;389;48.710;9.392;2022-08-01T14:55:02;3.10;;;2.30;;
813;SDS011;389;48.710;9.392;2022-08-01T14:57:29;4.07;;;2.43;;
813;SDS011;389;48.710;9.392;2022-08-01T14:59:54;2.53;;;2.30;;
813;SDS011;389;48.710;9.392;2022-08-01T15:02:20;3.33;;;2.43;;
813;SDS011;389;48.710;9.392;2022-08-01T15:04:46;3.57;;;2.70;;
813;SDS011;389;48.710;9.392;2022-08-01T15:07:13;3.60;;;2.50;;
813;SDS011;389;48.710;9.392;2022-08-01T15:09:39;2.50;;;2.20;;
813;SDS011;389;48.710;9.392;2022-08-01T15:12:05;2.57;;;2.43;;
813;SDS011;389;48.710;9.392;2022-08-01T15:14:31;3.33;;;2.70;;
813;SDS011;389;48.710;9.392;2022-08-01T15:17:19;2.70;;;2.50;;
813;SDS011;389;48.710;9.392;2022-08-01T15:19:47;3.10;;;2.80;;
813;SDS011;389;48.710;9.392;2022-08-01T15:22:14;4.17;;;3.20;;
813;SDS011;389;48.710;9.392;2022-08-01T15:24:41;2.50;;;2.30;;
813;SDS011;389;48.710;9.392;2022-08-01T15:27:06;2.73;;;2.50;;
813;SDS011;389;48.710;9.392;2022-08-01T15:29:32;2.47;;;2.37;;
813;SDS011;389;48.710;9.392;2022-08-01T15:31:59;3.40;;;2.87;;
813;SDS011;389;48.710;9.392;2022-08-01T15:34:25;3.60;;;3.30;;
813;SDS011;389;48.710;9.392;2022-08-01T15:36:50;3.03;;;2.73;;
813;SDS011;389;48.710;9.392;2022-08-01T15:39:16;2.70;;;2.50;;
813;SDS011;389;48.710;9.392;2022-08-01T15:41:42;2.43;;;2.33;;
813;SDS011;389;48.710;9.392;2022-08-01T15:44:07;3.03;;;2.83;;
813;SDS011;389;48.710;9.392;2022-08-01T15:46:33;2.80;;;2.50;;
813;SDS011;389;48.710;9.392;2022-08-01T15:49:07;2.50;;;2.30;;
813;SDS011;389;48.710;9.392;2022-08-01T15:51:33;5.33;;;3.60;;
813;SDS011;389;48.710;9.392;2022-08-01T15:53:59;3.60;;;3.00;;
813;SDS011;389;48.710;9.392;2022-08-01T15:56:31;2.63;;;2.43;;
813;SDS011;389;48.710;9.392;2022-08-01T15:58:57;2.80;;;2.60;;
813;SDS011;389;48.710;9.392;2022-08-01T16:01:23;3.67;;;2.70;;
813;SDS011;389;48.710;9.392;2022-08-01T16:03:52;2.73;;;2.53;;
813;SDS011;389;48.710;9.392;2022-08-01T16:06:19;3.37;;;2.37;;
813;SDS011;389;48.710;9.392;2022-08-01T16:08:45;2.60;;;2.40;;
813;SDS011;389;48.710;9.392;2022-08-01T16:11:10;2.67;;;2.50;;
813;SDS011;389;48.710;9.392;2022-08-01T16:13:36;3.17;;;2.50;;
813;SDS011;389;48.710;9.392;2022-08-01T16:16:02;4.33;;;2.60;;
813;SDS011;389;48.710;9.392;2022-08-01T16:18:28;2.83;;;2.63;;
813;SDS011;389;48.710;9.392;2022-08-01T16:20:54;2.77;;;2.40;;
813;SDS011;389;48.710;9.392;2022-08-01T16:23:23;5.23;;;4.00;;
813;SDS011;389;48.710;9.392;2022-08-01T16:25:49;5.00;;;4.00;;
813;SDS011;389;48.710;9.392;2022-08-01T16:28:15;3.80;;;3.50;;
813;SDS011;389;48.710;9.392;2022-08-01T16:30:42;4.03;;;3.67;;
813;SDS011;389;48.710;9.392;2022-08-01T16:33:07;3.70;;;3.40;;
813;SDS011;389;48.710;9.392;2022-08-01T16:35:34;4.00;;;3.40;;
813;SDS011;389;48.710;9.392;2022-08-01T16:38:00;3.50;;;3.20;;
813;SDS011;389;48.710;9.392;2022-08-01T16:40:26;3.13;;;2.93;;
813;SDS011;389;48.710;9.392;2022-08-01T16:42:52;4.57;;;3.00;;
813;SDS011;389;48.710;9.392;2022-08-01T16:45:18;3.30;;;3.00;;
813;SDS011;389;48.710;9.392;2022-08-01T16:47:45;5.00;;;2.90;;